Ride Results

Tom Quilty Gold Cup (10-06-2000)
Ride distance: 160.0 km

Outcomes - Tom Quilty Gold Cup (10-06-2000)
Division No. of Entries Retired / DNE Completed Withdrawn Ineligible V/O Percentage Completed
HW 58 - 33 4 - 21 56.90%
MW 127 - 78 7 - 42 61.42%
LW 56 - 39 1 - 16 69.64%
JN 17 - 13 - - 4 76.47%
Totals 258 - 163 12 - 83 63.18%
Results - Tom Quilty Gold Cup (10-06-2000)
No. Rider Horse Place Time Leg Speeds Total
Km/Hr
H/R bpm
Heavyweight
27 Roy Counsell Kurrajong Srikanth 1 11:51:00 11.3, 15.4, 15.5, 12.8, 13.6 13.50 31, 44, 45, 50, 50, 45 (Avg:46)
254 Michael Carr Splash 2 (BC) 12:58:00 12.1, 15.1, 13.4, 9.2, 12.7 12.34 43, 48, 53, 52, 48, 52 (Avg:50)
192 Peter Casey Hillbrae Roderick 3 13:44:00 10.5, 13.0, 11.4, 9.9, 16.2 11.65 33, 47, 49, 52, 54, 52 (Avg:50)
188 Paul Fitzgerald Castlebar Talisman 4 13:47:00 11.6, 14.4, 11.0, 8.7, 13.7 11.61 33, 47, 45, 54, 50, 49 (Avg:49)
135 Craig Renner Lentara Park Jobe 5 14:00:59 10.7, 13.1, 11.7, 9.4, 12.9 11.42 32, 45, 47, 49, 45, 44 (Avg:46)
130 Barry Thurlow Sharahd Mopani 6 14:26:00 11.0, 13.0, 12.1, 8.9, 10.4 11.09 34, 44, 51, 54, 53, 47 (Avg:49)
169 Tim Weismann Kabeesha 7 14:31:00 9.5, 12.4, 12.9, 9.0, 13.3 11.02 35, 50, 51, 54, 53, 54 (Avg:52)
178 Ron Guascoine Harb Wind-Haiya 8 14:32:00 10.5, 13.7, 11.9, 9.4, 9.3 11.01 34, 44, 46, 54, 60, 57 (Avg:52)
218 Ced Fry Roxborough Imprint 9 14:52:00 9.5, 14.3, 10.2, 9.0, 11.9 10.76 31, 44, 44, 39, 46, 45 (Avg:43)
215 Alwyn Torenbeek Once Only 9 14:52:00 10.5, 12.4, 10.5, 8.4, 13.4 10.76 35, 46, 55, 50, 51, 50 (Avg:50)
172 Peter Birch Kamaret Gypsy 11 15:52:00 9.5, 11.7, 10.0, 9.0, 9.9 10.08 32, 46, 50, 51, 48, 50 (Avg:49)
148 Ivan Sampson Hillbrae L.C. 11 15:52:00 9.7, 11.7, 9.9, 9.0, 9.9 10.08 33, 40, 44, 44, 45, 39 (Avg:42)
10 Henne Bezuidenhout Stanpark Norman 13 16:13:00 8.9, 12.6, 10.4, 8.3, 9.4 9.87 28, 42, 49, 54, 55, 53 (Avg:50)
177 Marty Branigan Pale Monday 14 16:39:00 9.6, 11.8, 11.4, 8.0, 7.1 9.61 34, 43, 42, 48, 49, 50 (Avg:46)
78 Des Roots Bundy 14 16:39:00 9.6, 13.8, 10.7, 7.8, 6.5 9.61 33, 44, 51, 52, 55, 43 (Avg:49)
72 Virginia Blain Mindari Aenzac 16 16:49:00 10.4, 12.8, 10.5, 7.3, 6.7 9.51 29, 42, 44, 42, 46, 42 (Avg:43)
167 Barry Akers Arabell Najestic (exp UAE) 17 16:51:00 10.9, 13.7, 9.3, 6.3, 8.4 9.50 35, 46, 50, 53, 50, 52 (Avg:50)
168 Noel Weismann Hirstglen Bozrah 18 16:57:00 9.2, 12.1, 9.2, 7.5, 9.2 9.44 41, 48, 55, 52, 58, 57 (Avg:54)
176 Michelle Haack Jauboo 19 17:05:00 9.9, 12.6, 10.7, 7.7, 6.1 9.37 44, 49, 48, 51, 49, 45 (Avg:48)
242 Patrick Daly Yaldon Gwai Sadiiq 20 17:09:00 10.0, 11.6, 10.9, 7.4, 6.7 9.33 37, 39, 49, 47, 54, 47 (Avg:47)
97 Frank Muddyman Brandy 21 17:49:00 9.1, 11.1, 9.2, 7.5, 7.5 8.98 36, 43, 49, 52, 47, 46 (Avg:47)
180 Lewis Trueman Matta Mia Destiny 21 17:49:00 9.6, 11.1, 8.7, 7.0, 8.3 8.98 38, 51, 55, 54, 59, 55 (Avg:54)
38 Gaire Blunt Ningadoo Joseph 23 17:53:00 8.7, 11.1, 9.0, 7.4, 8.5 8.95 35, 42, 52, 52, 54, 53 (Avg:50)
28 Peter Verrydt Snowy River Phantom 24 17:55:00 7.5, 11.1, 10.7, 7.5, 8.8 8.93 35, 44, 46, 50, 51, 50 (Avg:48)
149 Maurice Crombie Abrock Flyer 25 18:05:00 9.3, 11.1, 8.9, 7.3, 7.2 8.85 40, 42, 44, 47, 48, 48 (Avg:45)
82 Patrick Leary Moonlite Snowman 26 18:30:00 9.5, 11.7, 8.6, 6.5, 7.0 8.65 36, 45, 52, 54, 57, 52 (Avg:52)
76 Laurie Stevens Chevy 27 18:37:00 8.4, 10.2, 8.9, 7.2, 8.1 8.59 30, 50, 47, 54, 58, 52 (Avg:52)
30 Paul Grieves Kelkette Park Flyte 28 18:47:00 8.4, 10.4, 9.0, 7.2, 7.2 8.52 41, 43, 51, 50, 51, 44 (Avg:47)
64 Mathew Thuaux Robian Kimaura 29 19:05:00 7.4, 11.4, 8.7, 7.1, 7.6 8.38 37, 47, 51, 50, 54, 55 (Avg:51)
98 Roy Noble Fenwick Flying Start 30 19:35:00 7.3, 11.1, 9.0, 7.1, 6.5 8.17 40, 53, 56, 55, 57, 50 (Avg:54)
216 John Norris Sumark Arizona Tango 31 20:03:00 8.7, 10.7, 8.0, 5.9, 6.7 7.98 43, 38, 47, 47, 50, 50 (Avg:46)
182 Christine Pendergast Filo 31 20:03:00 8.8, 10.6, 7.9, 5.9, 6.7 7.98 37, 48, 50, 50, 52, 51 (Avg:50)
159 Stuart Gauld Dusty Haze 33 20:09:00 8.8, 9.0, 7.6, 6.3, 7.6 7.94 38, 53, 46, 44, 43, 52 (Avg:47)
248 Cecil Lockhart Glanheathyn Arnie Lame L5 13:17:00 10.4, 13.7, 11.2, 11.5, 15.3 12.05 36, 41, 44, 46, 51, 48 (Avg:46)
175 John Fry Dejay Princess Shirak Lame L5 16:52:00 9.3, 12.3, 9.6, 7.5, 8.8 9.49 44, 49, 50, 53, 55, 57 (Avg:52)
96 Brian Keep Doran Park Just Reckless Lame L4 11:48:00 11.8, 16.9, 15.9, 7.2 11.86 31, 46, 49, 54, 54 (Avg:50)
99 Andrew McNicol Aden Gall or injury L4 12:12:00 11.1, 15.7, 11.6, 8.6 11.48 36, 51, 53, 55, 54 (Avg:53)
26 Cameron Cox Debrotnik Lame L4 14:23:00 9.7, 12.0, 9.8, 7.6 9.73 42, 50, 54, 52, 54 (Avg:52)
88 Gavin Groth Gleniph Naaration Lame L4 16:03:00 9.5, 10.3, 8.2, 6.8 8.72 41, 49, 56, 54, 56 (Avg:53)
185 Peter Toft Chambers Lodge Kadish Heart Rate L3 10:21:00 9.6, 11.5, 10.9 10.63 34, 49, 54, 63 (Avg:55)
124 Rob Scott Chalamon Gall or injury L3 11:08:00 9.2, 11.4, 9.0 9.88 34, 41, 44, 43 (Avg:42)
32 Terry Wood Tallawarra Scoot Lame L3 11:08:00 8.9, 11.4, 9.4 9.88 37, 46, 52, 50 (Avg:49)
205 Garry Lewis Bagera Widthdrawn L3 11:09:00 - 9.87 35, 49, 50, 51 (Avg:50)
65 Ray Rhodes Rathowen Zen Lame L3 11:37:00 9.1, 9.9, 9.1 9.47 30, 44, 52, 54 (Avg:50)
16 Denis Jeffery Jamaican Rum Heart Rate L2 5:56:00 12.4, 14.6 13.48 34, 48, 75 (Avg:61)
224 Jamie Lacey Piabun Nulwar Lame L2 6:33:00 10.5, 14.4 12.21 35, 52, 51 (Avg:51)
111 David Somerville Maf-Ue Czar Lame L2 7:12:00 10.3, 11.9 11.11 36, 45, 46 (Avg:45)
189 Andy Hansen Akina Nessah Gall or injury L2 7:36:00 9.6, 11.5 10.53 28, 45, 44 (Avg:44)
203 Selwyn Nix Blythswood Sir Galahad Lame L1 3:43:00 10.7 10.76 33, 46 (Avg:46)
48 Peter Cole Hillbrook Poachers Moon Lame L1 4:00:00 9.9 10.00 34, 55 (Avg:55)
179 David Pembroke Ernlea Winsilcon Gall or injury L1 4:18:00 9.3 9.30 34, 41 (Avg:41)
62 Ian(A) Forrester Carington Park Rahil Widthdrawn L1 4:24:00 - 9.09 32, 37 (Avg:37)
1 Wendy Lumbert Yarrabilla Kaos Heart Rate L1 4:26:00 9.0 9.02 30, 65 (Avg:65)
15 Denise Trollope Lindall Peggy Sioux Heart Rate L1 4:47:00 8.3 8.36 29, 66 (Avg:66)
134 Allan Renner Edenfels Rosina Widthdrawn L1 4:48:00 - 8.33 35, 50 (Avg:50)
238 Denis Sugars Yagoona Ben Buckenara Heart Rate L1 4:49:00 8.3 8.30 30, 57 (Avg:57)
101 Robert Punicki Brieema Mcinness Lame L1 5:21:00 7.4 7.48 33, 46 (Avg:46)
150 Chris Pollitt Sharahd Cheyenne Widthdrawn P/R 0:00:00 - - 33
Middleweight
102 Meg Wade Crystal Flyer 1 (BC) 11:28:00 12.2, 16.3, 14.7, 11.7, 17.1 13.95 39, 51, 51, 51, 55, 56 (Avg:52)
21 Dale Fitz-Gerald Innesview Desert Mhasa 2 11:58:00 13.2, 14.4, 13.3, 10.9, 16.6 13.37 32, 53, 56, 50, 55, 55 (Avg:53)
201 Linda Meredith Leatherwood Gidget 3 12:20:00 12.4, 17.3, 14.5, 9.4, 12.6 12.97 31, 48, 52, 50, 52, 52 (Avg:50)
186 Mark Haigh Algona Amstahr 4 12:24:00 11.8, 16.2, 13.4, 10.3, 13.9 12.90 34, 48, 50, 53, 56, 58 (Avg:53)
210 Rachael Keys Ramalea Passion 4 12:24:00 12.1, 15.7, 13.5, 10.7, 12.7 12.90 28, 41, 45, 47, 47, 46 (Avg:45)
206 Jack Johnson Piabun Budjar 6 12:34:00 11.4, 15.1, 15.3, 10.1, 12.9 12.73 32, 44, 51, 48, 48, 43 (Avg:46)
4 Abdullah Kharmis Ali Saeed Endura Starbuck 7 12:37:00 10.3, 14.8, 16.2, 10.5, 14.8 12.68 41, 48, 51, 57, 54, 54 (Avg:52)
118 Chris Forrester Charabal Fabian 8 12:47:00 10.3, 14.8, 13.3, 11.5, 14.4 12.52 33, 47, 49, 49, 50, 48 (Avg:48)
204 Jan Tyrrell Eumerella Rob Roy 8 12:47:00 10.3, 14.8, 13.3, 11.5, 14.4 12.52 39, 51, 49, 48, 54, 53 (Avg:51)
80 Philip Haworth Sawaan Rose 10 13:16:00 12.2, 14.3, 13.5, 9.5, 10.8 12.06 43, 43, 53, 48, 52, 53 (Avg:49)
256 Sonia Brown Glanheathyn Grace 11 13:17:00 10.4, 13.8, 11.2, 11.5, 15.3 12.05 36, 43, 49, 53, 50, 54 (Avg:49)
100 Sue Reed Kevisan Park Zamira 11 13:17:00 10.2, 14.8, 13.6, 9.9, 13.6 12.05 30, 48, 51, 54, 53, 52 (Avg:51)
183 Ondy Laws-King Trigger 13 13:44:52 10.4, 12.9, 11.7, 9.7, 16.6 11.64 41, 45, 51, 51, 49, 47 (Avg:48)
235 Daniele O'Loughlin Kelkette Park Silver Echo (exp UAE) 14 13:46:26 10.4, 13.8, 12.4, 9.6, 12.8 11.62 47, 51, 56, 58, 55, 53 (Avg:54)
121 Jim Farr Texas Rose 15 13:46:51 11.1, 14.3, 12.2, 8.8, 12.7 11.61 36, 50, 49, 52, 51, 56 (Avg:51)
152 Caroline Fitzgerald Suruk 16 13:47:22 11.6, 14.4, 11.0, 8.7, 13.7 11.60 28, 39, 42, 46, 45, 43 (Avg:43)
255 Gillian Grant Alnotarj Martise 17 13:55:00 12.6, 15.4, 14.2, 7.4, 9.6 11.50 27, 48, 48, 54, 49, 51 (Avg:50)
2 Mark Tylee Caramea Markov 18 14:30:00 9.6, 11.5, 12.2, 10.4, 12.7 11.03 37, 49, 50, 51, 53, 50 (Avg:50)
93 Leanne Le Claire Stanbrough James 19 14:33:00 11.0, 13.9, 11.5, 9.2, 9.0 11.00 33, 47, 52, 52, 54, 50 (Avg:51)
211 Vicki Harberger Queen Of Diamonds 20 14:52:00 10.5, 12.5, 10.5, 8.4, 13.3 10.76 33, 44, 47, 45, 47, 54 (Avg:47)
68 Peter Brown St Albans Sharif 21 15:03:00 11.0, 13.3, 10.4, 8.2, 10.3 10.63 34, 45, 53, 53, 55, 51 (Avg:51)
145 Karen Johanson Pathaania 22 15:31:00 10.3, 11.9, 10.7, 8.2, 10.6 10.31 31, 46, 44, 45, 46, 45 (Avg:45)
69 Denise Milton Bill Of Talbingo 23 15:46:00 9.6, 12.8, 10.9, 8.1, 9.5 10.15 34, 45, 50, 52, 51, 48 (Avg:49)
25 Corey Nix Aloha Sharaf 24 15:52:00 8.9, 12.9, 12.2, 8.7, 8.2 10.08 38, 37, 48, 49, 51, 43 (Avg:45)
251 Claude Filleul Rowallan Paint 25 15:53:00 10.3, 12.7, 11.1, 9.8, 6.3 10.07 34, 43, 54, 54, 56, 54 (Avg:52)
74 Hazel McCort Magic Moonlight 25 15:53:00 8.7, 11.5, 10.2, 9.2, 11.7 10.07 38, 45, 49, 55, 56, 55 (Avg:52)
6 Marcy Pavord Aloha Kruger 25 15:53:00 8.9, 13.4, 12.4, 19.1, 4.4 10.07 39, 44, 54, 56, 58, 51 (Avg:52)
234 Jaimee Foulsham Tuldar Naz-Elle 28 16:08:00 9.8, 11.9, 9.7, 8.2, 9.9 9.92 32, 49, 51, 48, 55, 56 (Avg:51)
158 Jaime Mansbridge Tarong Sharkana 29 16:19:00 9.4, 11.8, 10.4, 8.7, 8.3 9.81 45, 50, 51, 54, 54, 52 (Avg:52)
126 Peter Williams Elwell Silver Sphinx 30 16:39:00 10.2, 11.5, 10.8, 7.9, 7.3 9.61 34, 45, 47, 58, 60, 58 (Avg:53)
8 Kathleen Crandell Musical Gully Rhythm 31 16:46:00 8.9, 12.6, 10.0, 8.0, 8.3 9.54 39, 49, 50, 56, 56, 50 (Avg:52)
13 Fiona Meller Karrabesc 31 16:46:00 9.9, 11.7, 10.2, 7.5, 8.0 9.54 34, 49, 52, 45, 49, 48 (Avg:48)
20 Andrew Paton Sirhan 31 16:46:00 8.6, 11.5, 10.2, 8.4, 9.0 9.54 34, 46, 46, 53, 52, 48 (Avg:49)
233 Gayle Holmes Faraway Verdict 34 16:52:00 9.1, 11.7, 10.4, 7.4, 9.1 9.49 28, 46, 46, 51, 50, 45 (Avg:47)
9 David Marshall Saint 34 16:52:00 9.1, 11.7, 10.4, 7.4, 9.0 9.49 34, 50, 59, 48, 56, 52 (Avg:53)
104 Les Maclean Jai 36 17:00:00 9.1, 11.4, 9.8, 7.9, 8.5 9.41 34, 44, 51, 52, 52, 47 (Avg:49)
113 Erica Williams Martina 36 17:00:00 9.6, 11.4, 9.5, 7.6, 8.7 9.41 34, 49, 47, 50, 46, 50 (Avg:48)
226 Edward Michel Birralee Bloke 38 17:02:00 11.0, 10.9, 9.1, 7.3, 8.3 9.39 34, 40, 44, 42, 44, 39 (Avg:41)
239 Harry O'Brien Yeoman Mubarik 39 17:09:00 10.0, 11.5, 10.9, 7.4, 6.7 9.33 38, 44, 50, 52, 59, 49 (Avg:50)
47 Lex Gooch Brass 40 17:18:00 8.7, 11.4, 9.8, 7.7, 8.5 9.25 31, 44, 50, 48, 57, 52 (Avg:50)
117 Jackie Swan Brecon Paraway 41 17:31:00 9.0, 11.5, 10.2, 7.6, 7.1 9.13 35, 46, 51, 50, 52, 44 (Avg:48)
230 Jaclyn Barlow Dunwingeri Maakan 42 17:32:00 9.2, 11.7, 10.2, 7.2, 7.3 9.13 33, 44, 46, 49, 53, 48 (Avg:48)
228 Anne Barlow Blue Bronco 42 17:32:00 9.4, 11.4, 10.1, 7.2, 7.3 9.13 33, 40, 48, 53, 58, 50 (Avg:49)
133 Scott Hill Krishlah Jamir 42 17:32:00 9.0, 12.4, 9.5, 7.3, 7.3 9.13 37, 44, 52, 51, 50, 42 (Avg:47)
3 Sally Hall Numkimbil 45 17:33:00 9.3, 11.7, 10.6, 7.2, 6.8 9.12 40, 47, 51, 59, 57, 54 (Avg:53)
120 Ray Vlad Mithras Darius 46 17:35:00 10.0, 9.9, 8.1, 7.8, 9.6 9.10 38, 38, 52, 53, 53, 50 (Avg:49)
92 Christine Purton Kurrajong Kaleb 47 17:36:00 9.9, 11.4, 9.5, 7.4, 6.8 9.09 36, 53, 49, 51, 52, 54 (Avg:51)
116 Heather Lindsay Ralvon Colo 48 17:39:00 8.7, 11.5, 9.8, 7.3, 8.0 9.07 42, 50, 52, 52, 59, 44 (Avg:51)
55 Ron Males Safa Sonomie 48 17:39:00 8.4, 11.9, 8.9, 7.3, 9.2 9.07 32, 41, 42, 41, 45, 41 (Avg:42)
39 Justine Blunt Tristram Asham-Liela 50 17:42:00 9.3, 11.9, 9.9, 7.0, 7.0 9.04 32, 43, 50, 48, 53, 44 (Avg:47)
40 Claudia Reid Coolahlee Park Shasta 50 17:42:00 9.3, 11.9, 9.9, 7.0, 7.0 9.04 36, 45, 52, 46, 52, 52 (Avg:49)
54 Karen Rhodes Karrana Kelly 52 17:44:00 9.1, 9.9, 9.1, 7.6, 9.0 9.02 38, 42, 48, 47, 44, 51 (Avg:46)
252 Keryn Mahoney Sarisha 53 18:07:00 8.6, 11.6, 8.5, 7.6, 7.6 8.83 35, 42, 58, 43, 50, 48 (Avg:48)
43 Debby Larkings Everon Park Belboy 54 18:09:00 9.9, 10.2, 9.5, 6.4, 8.2 8.82 34, 48, 50, 54, 58, 58 (Avg:53)
199 Len Law Hamamas Pilgram Star 55 18:14:00 9.3, 11.7, 9.6, 7.0, 6.3 8.78 42, 45, 47, 49, 46, 46 (Avg:46)
115 Vivian Hollins Apollo 56 18:20:00 8.9, 10.4, 9.1, 7.4, 7.3 8.73 32, 42, 45, 45, 46, 44 (Avg:44)
246 Jane Cutts Lauralyn Banjo 57 18:21:00 8.8, 11.5, 8.5, 6.8, 8.0 8.72 33, 38, 50, 40, 58, 45 (Avg:46)
33 Rowena Robinson Chifty 58 18:22:00 8.8, 10.3, 9.5, 7.0, 7.8 8.71 35, 42, 49, 54, 52, 52 (Avg:49)
136 Olga Bartlett Jackson Brown 59 18:28:00 8.8, 11.0, 9.6, 6.9, 6.8 8.66 32, 42, 45, 47, 46, 44 (Avg:44)
131 Robyn Pembroke Zephyrantes 59 18:28:00 9.1, 10.7, 9.6, 6.8, 6.9 8.66 31, 41, 41, 54, 48, 47 (Avg:46)
173 Colleen Shaw Azerash Shahreza 59 18:28:00 9.0, 11.1, 9.4, 6.8, 6.8 8.66 35, 47, 50, 49, 49, 47 (Avg:48)
63 Ian Brown Bicford Boy 62 18:30:00 9.5, 11.5, 8.7, 6.5, 7.0 8.65 36, 49, 48, 52, 55, 53 (Avg:51)
144 Wilma Hopwood Ashraf Leah 63 18:32:00 10.1, 9.5, 8.6, 7.0, 7.3 8.63 36, 42, 45, 47, 49, 46 (Avg:45)
237 Jil Bourton Jezminh 64 18:40:00 7.2, 11.4, 8.5, 7.5, 9.0 8.57 35, 53, 47, 46, 47, 50 (Avg:48)
95 Julie Woods Kyuna Shevez 65 18:43:00 8.2, 10.8, 9.0, 7.0, 7.5 8.55 38, 49, 54, 58, 53, 49 (Avg:52)
60 Leslie Ralph Chip Chase Fadwan 66 18:45:00 8.3, 10.4, 8.2, 7.7, 7.5 8.53 33, 40, 46, 45, 48, 47 (Avg:45)
240 Ken Hobday Blue 67 18:46:00 9.6, 9.5, 8.6, 6.9, 7.4 8.53 34, 46, 48, 47, 59, 59 (Avg:51)
166 Kath Ryan Matta Mia Nimi 68 18:58:00 9.0, 10.2, 9.0, 7.3, 6.1 8.44 32, 44, 45, 47, 54, 36 (Avg:45)
51 Elsie Newsome Lorien Silk 69 18:59:00 9.2, 10.5, 8.3, 6.6, 7.2 8.43 27, 39, 50, 51, 51, 44 (Avg:47)
58 Eileen Blackmore EL-Barana Serbiyah 70 19:05:00 7.3, 12.0, 8.7, 7.0, 7.4 8.38 41, 37, 39, 40, 40, 42 (Avg:39)
127 Maurice Moffatt Lamae Storm Boy 71 19:24:00 8.2, 11.2, 9.1, 6.8, 5.9 8.25 37, 43, 46, 50, 50, 45 (Avg:46)
89 Jodi Finnegan Clarevale Canomie 72 19:36:00 7.6, 9.9, 9.4, 7.6, 6.0 8.16 35, 46, 50, 50, 55, 52 (Avg:50)
12 Kieron Power Alfie Langer 72 19:36:00 7.6, 9.9, 9.4, 7.6, 6.0 8.16 31, 40, 49, 50, 57, 46 (Avg:48)
73 Sonya Ruprecht Nizra 72 19:36:00 8.3, 10.0, 8.6, 6.9, 6.6 8.16 36, 52, 51, 53, 59, 52 (Avg:53)
217 John Bridge Hirstglen Tommie 75 19:38:00 9.4, 11.8, 5.8, 6.8, 7.8 8.15 36, 51, 45, 44, 40, 40 (Avg:44)
119 Bruce Seaward Monterra Ibn Silver Magic 75 19:38:00 8.4, 10.2, 7.5, 6.4, 8.5 8.15 37, 42, 47, 50, 49, 42 (Avg:46)
66 Martin Gregson Burren-dah Annie 77 20:11:00 8.3, 9.1, 8.1, 6.5, 7.2 7.93 29, 40, 43, 48, 47, 43 (Avg:44)
87 Phyllis Ross Burren-dah Mileste 78 20:12:00 8.3, 9.1, 8.1, 6.5, 7.1 7.92 32, 46, 44, 48, 46, 46 (Avg:46)
45 Stephen Cole Chase Lame L5 13:07:00 11.3, 15.4, 15.5, 13.1, 7.1 12.20 38, 46, 53, 49, 54, 44 (Avg:49)
29 Graham Appleton Sharahd Cavalier Lame L5 13:20:00 12.3, 16.1, 13.3, 10.7, 7.7 12.00 31, 44, 56, 56, 56, 55 (Avg:53)
5 Kevin James Simeon Sol Lame L5 14:20:00 10.6, 14.2, 10.7, 9.0, 11.9 11.16 38, 52, 55, 50, 51, 42 (Avg:50)
91 Dato Kamaruddim Inshallah Select Lame L5 15:31:00 9.1, 13.0, 11.7, 8.1, 11.0 10.31 34, 49, 49, 52, 56, 54 (Avg:52)
49 Betty Cowdery Bassa Khan Lame L5 18:42:00 9.5, 9.9, 7.6, 7.3, 7.8 8.56 34, 41, 52, 49, 48, 43 (Avg:46)
77 Dee Wyatt Karakatana Orbit Lame L5 18:47:00 8.4, 10.4, 9.0, 7.2, 7.2 8.52 33, 45, 46, 47, 54, 46 (Avg:47)
171 Jo Hamilton-Branigan Haycyon Himaman Widthdrawn L4 9:20:00 - 15.00 33, 44, 49, 46, 43 (Avg:45)
31 Geoff Hurt Kejome Komet Lame L4 11:00:00 12.8, 15.9, 14.9, 8.8 12.73 29, 48, 53, 59, 54 (Avg:53)
174 Martin Parker Betty Boo Lame L4 12:00:00 10.6, 15.3, 14.1, 8.4 11.67 32, 45, 53, 55, 53 (Avg:51)
187 Damien Keys Kynnum Park Arb Lame L4 12:02:00 12.1, 15.4, 11.5, 8.4 11.63 33, 43, 51, 48, 53 (Avg:48)
162 Nicole Urquhart Stanpark Mystery Lame L4 12:12:00 10.5, 14.5, 12.5, 9.1 11.48 34, 46, 51, 50, 51 (Avg:49)
108 Ian McGaffin Kelkette Park Nathan Lame L4 13:14:00 10.3, 13.7, 10.1, 8.5 10.58 37, 45, 55, 54, 54 (Avg:52)
14 David Player Indian Fidella Lame L4 13:45:00 10.1, 13.1, 10.5, 7.6 10.18 34, 46, 46, 48, 48 (Avg:47)
109 Tony Gillett Mukhalli Lame L4 13:56:00 9.9, 13.4, 11.5, 6.9 10.05 35, 53, 50, 52, 50 (Avg:51)
19 Virginia Dodson Jupiter Jasuur Lame L4 13:57:00 10.2, 12.7, 9.9, 7.6 10.04 28, 41, 44, 43, 42 (Avg:42)
184 Leigh Pearson Cherox Magnum Gall or injury L4 17:18:00 8.4, 10.2, 7.5, 6.4 8.09 33, 33, 39, 42, 42 (Avg:39)
231 Kay Barbeler Rivalyn Silver Domonique Widthdrawn L4 18:45:00 - 7.47 34, 49, 56, 50, 51 (Avg:51)
153 Sally Summers Kahsahn Lame L3 8:49:00 10.4, 14.8, 13.1 12.48 41, 45, 49, 50 (Avg:48)
71 Margaret Boland Iviore Metabolics L3 8:56:00 10.8, 14.3, 12.1 12.31 32, 44, 47, 50 (Avg:47)
243 Christopher Mahoney Red Lame L3 9:44:00 10.2, 12.8, 11.0 11.30 35, 47, 54, 52 (Avg:51)
129 Garry Beard Longrun Silver Shallum Lame L3 10:46:00 8.3, 13.4, 9.9 10.22 32, 44, 43, 46 (Avg:44)
107 Jim Maffett Kyup Queen Gall or injury L3 10:55:00 8.8, 11.8, 9.8 10.08 32, 44, 49, 52 (Avg:48)
137 Vivienne Teuwsen Roxborough Escudera Gall or injury L3 10:56:00 9.4, 11.5, 9.3 10.06 33, 44, 48, 55 (Avg:49)
44 Allan Caslick Nioka Park Rememberance Lame L3 12:16:00 7.4, 11.4, 8.7 8.97 34, 44, 48, 48 (Avg:46)
163 Jane Pollitt Avante Gall or injury L2 5:48:00 11.9, 16.3 13.79 31, 42, 44 (Avg:43)
232 John Bond Piabun Gigum Lame L2 6:14:00 11.1, 15.0 12.83 38, 50, 56 (Avg:53)
114 Allan Standfield Myrimbah Jawan Gall or injury L2 6:16:00 11.0, 15.0 12.77 41, 48, 55 (Avg:51)
35 Alan Lindsay Harrison Lame L2 6:28:00 10.9, 14.2 12.37 34, 50, 56 (Avg:53)
139 Steven Vergis Ebony Lodge Firefox Lame L2 6:43:00 10.6, 13.4 11.91 31, 49, 49 (Avg:49)
160 Tony Standfield Lindsay Park Bey Lame L2 7:25:00 8.9, 13.4 10.79 35, 54, 50 (Avg:52)
18 Annette Bailey Allira Park Cindark Lame L2 7:26:00 9.3, 12.6 10.76 33, 50, 51 (Avg:50)
213 Madeleine Fisher Nikos Markos Lame L2 7:59:00 9.4, 10.6 10.02 37, 43, 48 (Avg:45)
42 Jenny Sandford Abrock Comma Lame L2 8:02:00 10.7, 9.3 9.96 33, 46, 48 (Avg:47)
7 John Farwell Winterhawk Widthdrawn L2 8:21:00 - 9.58 38, 51, 59 (Avg:55)
143 Yvonne Strand Sardica Lame L2 9:03:00 7.7, 10.3 8.84 40, 46, 50 (Avg:48)
157 Marg Lundberg Nazooli G.a. Gall or injury L2 9:05:00 7.3, 10.9 8.81 48, 44, 43 (Avg:43)
52 Laura Cheney Fewson Provocative Lame L1 3:04:00 13.0 13.04 33, 52 (Avg:52)
128 Judy Battams Jalahd Lame L1 3:18:00 12.1 12.12 33, 48 (Avg:48)
247 Tammy Lamprey Glanheathyn Kassie Widthdrawn L1 3:48:00 - 10.53 38, 42 (Avg:42)
17 Angelina Patterson Bara Park Bastien Lame L1 4:23:00 9.1 9.13 28, 43 (Avg:43)
141 Paul Brown Ramalea Artimas Widthdrawn L1 4:24:00 - 9.09 28, 54 (Avg:54)
61 Jennifer Gilbertson Tullawulla Mista Lame L1 4:25:00 9.0 9.06 37, 54 (Avg:54)
112 Dean Stephen Zues Lame L1 4:25:00 9.0 9.06 31, 42 (Avg:42)
249 Lyn Nicolle Lauralyn Ranger Lame L1 4:33:00 8.7 8.79 28, 44 (Avg:44)
23 Lyn Bailey Lyndrian Reflection Gall or injury L1 4:41:00 8.5 8.54 36, 44 (Avg:44)
53 Gary Tweedie Ranjen Luke Heart Rate L1 4:44:00 8.4 8.45 32, 58 (Avg:58)
24 Amy Gooch Nioka Park Jazfah Widthdrawn P/R 0:00:00 - - 33
37 Lyndell McGowan Aberlene Park Brushstroke Gall or injury P/R 0:00:00 - - 35
245 Tony Purton Moonwitch Widthdrawn P/R 0:00:00 - - 34
Lightweight
220 Midori Yasunaga Kelkette Park Nadina 1 11:58:00 12.3, 15.9, 13.3, 10.9, 16.4 13.37 34, 45, 49, 55, 50, 51 (Avg:50)
106 Kristie Taprell Kelkette Park Fyre 2 (BC) 12:19:00 10.8, 14.5, 13.2, 12.1, 17.6 12.99 35, 45, 55, 49, 48, 50 (Avg:49)
227 Alicia Henry Allamir Silver Phantom 3 12:21:00 11.5, 17.5, 15.2, 9.9, 12.1 12.96 34, 50, 49, 51, 46, 45 (Avg:48)
105 Naomi McGaffin Omani Coraz 4 12:36:00 10.0, 14.6, 14.4, 11.9, 15.3 12.70 42, 54, 60, 59, 58, 58 (Avg:57)
57 Janet Hurt Bern 5 13:21:00 12.8, 15.9, 14.9, 8.8, 8.5 11.99 30, 50, 56, 56, 47, 49 (Avg:51)
164 Melissa Longhurst Narmond Silver Gift 6 13:52:53 11.1, 13.4, 11.7, 9.2, 13.0 11.53 32, 43, 41, 41, 42, 44 (Avg:42)
222 Sharon Mathers Kynnum Park Winter Wind 7 14:02:07 10.3, 14.3, 11.1, 9.6, 12.4 11.40 51, 45, 45, 47, 49, 49 (Avg:47)
181 Sonya Ryan Abrock Ned 8 14:03:00 10.6, 14.6, 11.3, 9.0, 12.4 11.39 34, 46, 50, 50, 44, 50 (Avg:48)
253 Cynthia Carr Beckett 9 14:10:11 12.6, 14.5, 10.5, 8.7, 9.9 11.29 37, 52, 54, 53, 53, 50 (Avg:52)
208 Fiona Green Escort Silver Christal 10 14:26:00 11.1, 13.5, 13.6, 8.4, 9.3 11.09 29, 39, 50, 52, 52, 51 (Avg:48)
155 Anne Jones Kelkette Park Silver Elite 11 14:33:00 10.9, 14.2, 11.5, 9.2, 9.0 11.00 30, 41, 46, 48, 50, 42 (Avg:45)
41 Shan Symons Cherox Tadarraja 12 15:53:00 10.1, 13.1, 10.5, 7.6, 9.4 10.07 45, 47, 45, 47, 49, 51 (Avg:47)
198 Melissa Law Princess Delilah 13 16:19:00 9.7, 13.3, 10.6, 8.1, 7.2 9.81 36, 55, 46, 46, 48, 48 (Avg:48)
194 Melodie Churchill Shahreena 'Al Amira 14 16:23:00 11.0, 12.1, 10.9, 7.8, 6.8 9.77 33, 43, 45, 47, 48, 47 (Avg:46)
196 Elizabeth Collins Same As 14 16:23:00 9.3, 11.9, 10.4, 8.3, 8.6 9.77 39, 43, 48, 49, 55, 50 (Avg:49)
132 Malcolm Matters Gentle Touch Onleigh 14 16:23:00 11.1, 12.4, 10.5, 7.8, 6.8 9.77 38, 48, 50, 51, 55, 42 (Avg:49)
56 Carol Wendt Tommie 17 16:36:00 8.9, 11.4, 9.4, 8.5, 10.1 9.64 30, 43, 49, 46, 40, 45 (Avg:44)
123 Catherine Robertson Aloha Roset 18 16:51:00 11.1, 13.0, 10.5, 6.2, 7.9 9.50 31, 39, 37, 39, 41, 42 (Avg:39)
219 Joan Leszczewicz Waynes Gift 19 16:51:48 10.9, 13.6, 10.4, 6.1, 7.8 9.49 32, 40, 46, 49, 55, 46 (Avg:47)
225 Alicia Coates Toombar 20 16:54:00 10.0, 10.6, 9.4, 8.1, 8.7 9.47 30, 41, 40, 42, 42, 44 (Avg:41)
125 Alison Scott Sigmund 21 16:58:00 9.2, 11.4, 9.0, 7.8, 9.9 9.43 32, 49, 52, 54, 56, 52 (Avg:52)
103 Kathy Maffett Grassmere Silver Ray 22 17:30:00 8.8, 11.8, 9.8, 7.9, 7.1 9.14 29, 38, 45, 46, 49, 41 (Avg:43)
229 Selena Barlow Tyto Ivan 23 17:32:00 9.4, 11.4, 10.2, 6.1, 9.9 9.13 36, 41, 49, 46, 49, 48 (Avg:46)
214 Caroline Windle Lyndrian Rosetta 24 17:33:00 9.1, 12.4, 8.6, 7.9, 7.2 9.12 32, 42, 47, 46, 49, 37 (Avg:44)
258 Karyn Holden Forruby 25 17:54:00 8.3, 11.0, 10.0, 7.5, 7.9 8.94 40, 48, 48, 52, 54, 55 (Avg:51)
250 Jackie Cullen Rowallan Shanty 26 18:08:00 8.5, 11.7, 8.5, 7.6, 7.5 8.82 34, 50, 49, 49, 51, 47 (Avg:49)
140 Leanne McLaughlin Haze 27 18:09:00 10.5, 10.3, 8.8, 7.9, 6.0 8.82 37, 44, 51, 51, 49, 47 (Avg:48)
122 Heather Roberts Tutamen Mustika 28 18:14:00 9.4, 11.5, 7.4, 7.9, 7.2 8.78 30, 46, 44, 47, 54, 46 (Avg:47)
147 Jenny Noffke Simeon Savel 29 18:21:00 8.8, 10.5, 9.0, 7.5, 7.3 8.72 38, 47, 52, 49, 50, 48 (Avg:49)
195 Melissa Aquilina Anna's Silver D 30 18:28:00 9.1, 10.7, 9.6, 6.8, 7.0 8.66 33, 36, 42, 46, 47, 44 (Avg:43)
151 Nerrida Wolfe-Purton Lynton Park Khan 31 18:32:00 10.1, 9.5, 8.6, 7.1, 7.2 8.63 29, 43, 44, 47, 50, 47 (Avg:46)
221 Claudia Schwarzel Maydale Park Sheldan 32 18:33:00 8.6, 10.6, 7.9, 7.4, 8.6 8.63 39, 48, 50, 52, 52, 48 (Avg:50)
36 Sally Stevens Rylian China Doll 33 18:38:00 8.4, 10.2, 8.9, 7.2, 8.1 8.59 34, 40, 41, 45, 55, 44 (Avg:45)
50 Clea Ralph Box Hill Roselight 34 18:45:00 8.3, 10.4, 8.2, 7.7, 7.5 8.53 34, 42, 46, 42, 49, 44 (Avg:44)
22 Margaret Godbee Aloha Sahara 35 18:47:00 8.4, 10.4, 9.1, 7.0, 7.4 8.52 34, 40, 41, 43, 45, 41 (Avg:42)
85 Luke Annetts Poets Corner Hanna 36 18:58:00 9.0, 10.7, 8.3, 6.6, 7.2 8.44 36, 43, 50, 49, 51, 45 (Avg:47)
11 Ahmed Saeed Alkamda Poets Corner Trafalgar 37 18:59:00 9.0, 10.8, 8.0, 6.7, 7.4 8.43 50, 48, 53, 55, 58, 54 (Avg:53)
83 Jodie Salinas Allira Park Prince Of Light 37 18:59:00 9.2, 10.5, 8.3, 6.6, 7.2 8.43 40, 45, 42, 46, 48, 46 (Avg:45)
81 Deslee Jones Dammah 39 20:11:00 8.4, 9.9, 7.4, 6.7, 6.7 7.93 37, 45, 54, 48, 44, 45 (Avg:47)
200 Jacky Clarke Emily Lame L4 13:12:00 10.7, 14.0, 9.8, 8.3 10.61 38, 50, 60, 52, 57 (Avg:54)
197 Megan Law Vagabond Prince Lame L4 15:06:00 8.7, 12.7, 9.6, 7.0 9.27 36, 46, 54, 58, 60 (Avg:54)
244 Jodie Phillips Travella Lame L4 15:52:00 8.7, 11.5, 8.5, 6.8 8.82 38, 48, 52, 50, 53 (Avg:50)
94 Sallyanne Mckerrow Rebel Heart Rate L4 16:07:00 8.2, 11.0, 9.3, 6.7 8.69 33, 45, 48, 54, 64 (Avg:52)
209 Sally Genninges Norben Park Royal Mashifa Widthdrawn L4 18:45:00 - 7.47 39, 50, 59, 55, 55 (Avg:54)
34 Tova Ducker Oakhill Quevado Lame L3 10:15:00 9.3, 12.8, 10.5 10.73 40, 51, 56, 56 (Avg:54)
75 Kathy Vinge Castlebar Macleod Lame L3 10:20:00 8.4, 13.5, 11.2 10.65 30, 50, 54, 58 (Avg:54)
46 David Forrester Diamond R Casey Lame L3 10:28:00 9.8, 11.9, 9.7 10.51 32, 48, 49, 58 (Avg:51)
67 Barbara Bryan Romeo Lame L3 11:08:00 8.9, 11.3, 9.4 9.88 32, 53, 49, 50 (Avg:50)
110 Shannon Decker Yarralien Titania Lame L3 11:50:00 8.3, 10.7, 9.0 9.30 37, 54, 50, 48 (Avg:50)
212 Deborar Leah Gale Bay Banquet Lame L3 16:30:00 8.9, 10.3, 3.6 6.67 34, 41, 44, 41 (Avg:42)
70 Sue Todd Shaboom Lame L2 6:37:00 10.8, 13.7 12.09 36, 47, 58 (Avg:52)
223 Briony Ledingham Ledarb Farm Nadjarl Heart Rate L2 6:49:00 10.2, 13.7 11.74 40, 42, 68 (Avg:55)
142 Joy Rose Fernside Cherokee Gall or injury L1 4:25:00 9.0 9.06 36, 50 (Avg:50)
170 Deborah Hargie Santana Park Samson Gall or injury L1 4:26:00 9.0 9.02 34, 41 (Avg:41)
156 Trent Clifford Everglades Supreme Lame L1 4:38:00 8.6 8.63 32, 39 (Avg:39)
165 Kristie Sheehan Arabell Majestic Dancer Lame P/R 0:00:00 - - 30
Junior
207 Ben Noller Race The Wind 1 (BC) 12:00:00 12.4, 17.1, 14.8, 10.4, 12.9 13.33 36, 45, 48, 51, 51, 43 (Avg:47)
190 Georgia Paton Myahna Melodoura 2 12:21:00 11.8, 17.0, 15.7, 8.3, 17.6 12.96 33, 41, 48, 48, 45, 50 (Avg:46)
191 Tulsi Combe Dor Eleanor Park Mardi Moon (exp UAE) 3 12:48:00 11.8, 15.2, 13.7, 9.5, 13.4 12.50 37, 43, 47, 45, 46, 43 (Avg:44)
79 Jessica Kennedy Birdwood Tambourine 3 12:48:00 11.8, 15.1, 13.5, 9.7, 13.4 12.50 31, 48, 47, 56, 47, 56 (Avg:50)
257 Thomas Wilde Spook 5 12:58:00 12.6, 15.3, 14.6, 8.5, 12.1 12.34 34, 43, 51, 55, 57, 58 (Avg:52)
161 Jo Barsby Sumna Jai 6 13:20:00 11.9, 13.1, 14.7, 8.8, 13.0 12.00 30, 50, 50, 58, 53, 49 (Avg:52)
236 Amily Le Rimsanet Park Ice House 7 13:46:00 10.4, 13.8, 12.5, 9.6, 12.7 11.62 30, 48, 52, 52, 51, 51 (Avg:50)
154 Rachel Trevarthen Prophet 8 13:52:00 11.0, 14.2, 12.2, 8.9, 12.2 11.54 31, 52, 55, 51, 56, 50 (Avg:52)
138 Mitchell Teuwsen Tequila Sunrise 9 16:54:00 9.4, 11.4, 9.5, 7.9, 8.6 9.47 36, 44, 42, 46, 52, 53 (Avg:47)
193 Hailey Roberts Ishantar 10 18:14:00 9.4, 11.5, 8.0, 7.4, 7.2 8.78 24, 38, 40, 39, 44, 40 (Avg:40)
146 Claire Ryan Shahman 11 18:22:00 9.1, 9.9, 9.1, 7.2, 7.8 8.71 36, 44, 48, 52, 53, 50 (Avg:49)
59 Adam Cowdery Wyndorah 12 18:42:00 9.5, 9.9, 7.7, 7.3, 7.8 8.56 30, 48, 51, 51, 51, 46 (Avg:49)
84 Cassie Newsome Abrock Gemma 12 18:42:00 9.5, 9.9, 7.6, 7.3, 7.8 8.56 32, 41, 44, 48, 48, 45 (Avg:45)
241 David Riches Ralvon Link Heart Rate L4 12:10:00 10.0, 11.5, 10.9, 14.8 11.51 36, 38, 50, 53, 63 (Avg:51)
90 Kerry-Lee Sayer Oo7 Lame L4 14:57:00 8.7, 11.4, 9.8, 7.7 9.36 30, 43, 50, 48, 47 (Avg:47)
86 Jennifer Johansen Princess Milah Lame L2 8:07:00 9.0, 10.7 9.86 37, 47, 46 (Avg:46)
202 Morgan Schloss Kaia Lame L1 5:29:00 7.2 7.29 43, 45 (Avg:45)